sensor_id;sensor_type;location;lat;lon;timestamp;P1;durP1;ratioP1;P2;durP2;ratioP2
50683;SDS011;36654;45.042;38.994;2022-10-22T00:00:08;9.63;;;5.05;;
50683;SDS011;36654;45.042;38.994;2022-10-22T00:02:37;6.63;;;5.10;;
50683;SDS011;36654;45.042;38.994;2022-10-22T00:05:02;9.90;;;4.97;;
50683;SDS011;36654;45.042;38.994;2022-10-22T00:07:28;9.15;;;5.20;;
50683;SDS011;36654;45.042;38.994;2022-10-22T00:09:54;6.93;;;5.35;;
50683;SDS011;36654;45.042;38.994;2022-10-22T00:12:20;13.77;;;5.53;;
50683;SDS011;36654;45.042;38.994;2022-10-22T00:14:46;6.68;;;5.07;;
50683;SDS011;36654;45.042;38.994;2022-10-22T00:17:12;9.80;;;5.28;;
50683;SDS011;36654;45.042;38.994;2022-10-22T00:19:38;9.02;;;5.10;;
50683;SDS011;36654;45.042;38.994;2022-10-22T00:22:04;10.73;;;5.38;;
50683;SDS011;36654;45.042;38.994;2022-10-22T00:24:31;7.25;;;4.93;;
50683;SDS011;36654;45.042;38.994;2022-10-22T00:26:57;8.68;;;5.78;;
50683;SDS011;36654;45.042;38.994;2022-10-22T00:29:23;10.65;;;5.50;;
50683;SDS011;36654;45.042;38.994;2022-10-22T00:31:48;8.77;;;5.47;;
50683;SDS011;36654;45.042;38.994;2022-10-22T00:34:17;12.15;;;6.45;;
50683;SDS011;36654;45.042;38.994;2022-10-22T00:36:45;9.63;;;5.25;;
50683;SDS011;36654;45.042;38.994;2022-10-22T00:39:15;10.77;;;5.65;;
50683;SDS011;36654;45.042;38.994;2022-10-22T00:41:42;11.63;;;5.95;;
50683;SDS011;36654;45.042;38.994;2022-10-22T00:47:16;9.57;;;6.30;;
50683;SDS011;36654;45.042;38.994;2022-10-22T00:49:44;11.02;;;6.22;;
50683;SDS011;36654;45.042;38.994;2022-10-22T00:52:12;12.73;;;6.35;;
50683;SDS011;36654;45.042;38.994;2022-10-22T00:54:38;11.90;;;6.28;;
50683;SDS011;36654;45.042;38.994;2022-10-22T00:57:05;14.20;;;6.93;;
50683;SDS011;36654;45.042;38.994;2022-10-22T00:59:31;11.70;;;6.45;;
50683;SDS011;36654;45.042;38.994;2022-10-22T01:01:57;11.45;;;6.30;;
50683;SDS011;36654;45.042;38.994;2022-10-22T01:04:23;13.77;;;6.60;;
50683;SDS011;36654;45.042;38.994;2022-10-22T01:06:49;10.70;;;5.93;;
50683;SDS011;36654;45.042;38.994;2022-10-22T01:25:33;8.57;;;5.95;;
50683;SDS011;36654;45.042;38.994;2022-10-22T01:30:36;12.90;;;5.30;;
50683;SDS011;36654;45.042;38.994;2022-10-22T01:33:05;9.75;;;5.43;;
50683;SDS011;36654;45.042;38.994;2022-10-22T01:35:36;13.93;;;5.65;;
50683;SDS011;36654;45.042;38.994;2022-10-22T01:38:06;11.73;;;6.05;;
50683;SDS011;36654;45.042;38.994;2022-10-22T01:40:35;13.77;;;5.78;;
50683;SDS011;36654;45.042;38.994;2022-10-22T01:43:05;11.40;;;5.50;;
50683;SDS011;36654;45.042;38.994;2022-10-22T01:45:42;8.43;;;5.22;;
50683;SDS011;36654;45.042;38.994;2022-10-22T01:50:55;10.50;;;5.38;;
50683;SDS011;36654;45.042;38.994;2022-10-22T02:01:52;13.02;;;6.20;;
50683;SDS011;36654;45.042;38.994;2022-10-22T02:04:29;11.95;;;6.22;;
50683;SDS011;36654;45.042;38.994;2022-10-22T02:07:11;10.38;;;5.65;;
50683;SDS011;36654;45.042;38.994;2022-10-22T02:09:39;10.57;;;5.88;;
50683;SDS011;36654;45.042;38.994;2022-10-22T02:12:07;10.85;;;5.22;;
50683;SDS011;36654;45.042;38.994;2022-10-22T02:14:35;10.13;;;4.85;;
50683;SDS011;36654;45.042;38.994;2022-10-22T02:17:03;8.15;;;4.80;;
50683;SDS011;36654;45.042;38.994;2022-10-22T02:19:40;10.27;;;4.97;;
50683;SDS011;36654;45.042;38.994;2022-10-22T02:22:12;9.63;;;5.25;;
50683;SDS011;36654;45.042;38.994;2022-10-22T02:24:38;11.30;;;5.20;;
50683;SDS011;36654;45.042;38.994;2022-10-22T02:29:42;9.15;;;5.60;;
50683;SDS011;36654;45.042;38.994;2022-10-22T02:32:15;15.20;;;5.22;;
50683;SDS011;36654;45.042;38.994;2022-10-22T02:34:45;7.38;;;4.53;;
50683;SDS011;36654;45.042;38.994;2022-10-22T02:37:13;15.00;;;5.13;;
50683;SDS011;36654;45.042;38.994;2022-10-22T02:39:40;12.45;;;5.22;;
50683;SDS011;36654;45.042;38.994;2022-10-22T02:42:07;13.32;;;6.10;;
50683;SDS011;36654;45.042;38.994;2022-10-22T02:44:33;7.32;;;4.45;;
50683;SDS011;36654;45.042;38.994;2022-10-22T02:46:59;9.77;;;5.13;;
50683;SDS011;36654;45.042;38.994;2022-10-22T02:49:24;15.05;;;5.43;;
50683;SDS011;36654;45.042;38.994;2022-10-22T02:51:50;13.82;;;6.32;;
50683;SDS011;36654;45.042;38.994;2022-10-22T02:54:16;11.98;;;7.30;;
50683;SDS011;36654;45.042;38.994;2022-10-22T02:56:41;14.30;;;5.40;;
50683;SDS011;36654;45.042;38.994;2022-10-22T02:59:07;12.10;;;5.95;;
50683;SDS011;36654;45.042;38.994;2022-10-22T03:01:33;8.95;;;4.90;;
50683;SDS011;36654;45.042;38.994;2022-10-22T03:03:58;13.02;;;5.35;;
50683;SDS011;36654;45.042;38.994;2022-10-22T03:06:24;6.55;;;4.20;;
50683;SDS011;36654;45.042;38.994;2022-10-22T03:08:50;6.32;;;3.88;;
50683;SDS011;36654;45.042;38.994;2022-10-22T03:11:15;6.63;;;4.05;;
50683;SDS011;36654;45.042;38.994;2022-10-22T03:13:41;7.97;;;4.30;;
50683;SDS011;36654;45.042;38.994;2022-10-22T03:16:06;7.10;;;4.00;;
50683;SDS011;36654;45.042;38.994;2022-10-22T03:18:32;5.18;;;3.88;;
50683;SDS011;36654;45.042;38.994;2022-10-22T03:21:00;5.10;;;3.72;;
50683;SDS011;36654;45.042;38.994;2022-10-22T03:23:38;8.32;;;3.88;;
50683;SDS011;36654;45.042;38.994;2022-10-22T03:28:33;5.72;;;4.20;;
50683;SDS011;36654;45.042;38.994;2022-10-22T03:31:00;5.95;;;3.90;;
50683;SDS011;36654;45.042;38.994;2022-10-22T03:33:26;5.53;;;4.07;;
50683;SDS011;36654;45.042;38.994;2022-10-22T03:35:51;5.30;;;4.13;;
50683;SDS011;36654;45.042;38.994;2022-10-22T03:38:17;9.10;;;4.30;;
50683;SDS011;36654;45.042;38.994;2022-10-22T03:40:43;7.30;;;4.10;;
50683;SDS011;36654;45.042;38.994;2022-10-22T03:43:10;7.85;;;4.32;;
50683;SDS011;36654;45.042;38.994;2022-10-22T03:45:36;5.53;;;4.65;;
50683;SDS011;36654;45.042;38.994;2022-10-22T03:48:01;6.78;;;4.68;;
50683;SDS011;36654;45.042;38.994;2022-10-22T03:50:27;6.38;;;4.63;;
50683;SDS011;36654;45.042;38.994;2022-10-22T03:52:53;7.68;;;4.40;;
50683;SDS011;36654;45.042;38.994;2022-10-22T03:55:18;7.93;;;4.70;;
50683;SDS011;36654;45.042;38.994;2022-10-22T03:57:44;5.43;;;4.22;;
50683;SDS011;36654;45.042;38.994;2022-10-22T04:00:10;4.30;;;3.80;;
50683;SDS011;36654;45.042;38.994;2022-10-22T04:02:36;6.20;;;4.32;;
50683;SDS011;36654;45.042;38.994;2022-10-22T04:05:01;5.30;;;3.85;;
50683;SDS011;36654;45.042;38.994;2022-10-22T04:07:27;4.93;;;3.60;;
50683;SDS011;36654;45.042;38.994;2022-10-22T04:09:53;6.78;;;3.90;;
50683;SDS011;36654;45.042;38.994;2022-10-22T04:12:18;4.72;;;3.55;;
50683;SDS011;36654;45.042;38.994;2022-10-22T04:14:44;4.70;;;3.67;;
50683;SDS011;36654;45.042;38.994;2022-10-22T04:17:10;6.20;;;3.78;;
50683;SDS011;36654;45.042;38.994;2022-10-22T04:19:35;4.15;;;3.53;;
50683;SDS011;36654;45.042;38.994;2022-10-22T04:22:01;4.15;;;3.75;;
50683;SDS011;36654;45.042;38.994;2022-10-22T04:24:27;5.38;;;3.30;;
50683;SDS011;36654;45.042;38.994;2022-10-22T04:26:55;6.40;;;4.10;;
50683;SDS011;36654;45.042;38.994;2022-10-22T04:29:20;4.65;;;3.80;;
50683;SDS011;36654;45.042;38.994;2022-10-22T04:31:46;6.68;;;4.03;;
50683;SDS011;36654;45.042;38.994;2022-10-22T04:34:12;8.90;;;3.58;;
50683;SDS011;36654;45.042;38.994;2022-10-22T04:36:38;7.55;;;4.18;;
50683;SDS011;36654;45.042;38.994;2022-10-22T04:39:04;5.63;;;3.92;;
50683;SDS011;36654;45.042;38.994;2022-10-22T04:41:31;3.90;;;3.45;;
50683;SDS011;36654;45.042;38.994;2022-10-22T04:43:59;5.28;;;3.35;;
50683;SDS011;36654;45.042;38.994;2022-10-22T04:46:27;4.68;;;3.97;;
50683;SDS011;36654;45.042;38.994;2022-10-22T04:48:54;6.22;;;3.67;;
50683;SDS011;36654;45.042;38.994;2022-10-22T04:51:21;5.68;;;4.00;;
50683;SDS011;36654;45.042;38.994;2022-10-22T04:53:48;6.63;;;4.32;;
50683;SDS011;36654;45.042;38.994;2022-10-22T04:56:15;4.50;;;3.50;;
50683;SDS011;36654;45.042;38.994;2022-10-22T04:58:46;4.18;;;3.35;;
50683;SDS011;36654;45.042;38.994;2022-10-22T05:01:15;5.80;;;4.00;;
50683;SDS011;36654;45.042;38.994;2022-10-22T05:03:43;11.70;;;3.80;;
50683;SDS011;36654;45.042;38.994;2022-10-22T05:06:10;7.05;;;4.03;;
50683;SDS011;36654;45.042;38.994;2022-10-22T05:08:36;7.18;;;4.07;;
50683;SDS011;36654;45.042;38.994;2022-10-22T05:11:13;7.18;;;3.85;;
50683;SDS011;36654;45.042;38.994;2022-10-22T05:13:39;7.45;;;4.13;;
50683;SDS011;36654;45.042;38.994;2022-10-22T05:16:05;5.03;;;4.18;;
50683;SDS011;36654;45.042;38.994;2022-10-22T05:18:38;5.05;;;3.85;;
50683;SDS011;36654;45.042;38.994;2022-10-22T05:21:09;4.38;;;3.97;;
50683;SDS011;36654;45.042;38.994;2022-10-22T05:23:37;5.90;;;4.40;;
50683;SDS011;36654;45.042;38.994;2022-10-22T05:26:04;5.38;;;4.38;;
50683;SDS011;36654;45.042;38.994;2022-10-22T05:28:31;4.22;;;3.83;;
50683;SDS011;36654;45.042;38.994;2022-10-22T05:30:58;4.68;;;3.90;;
50683;SDS011;36654;45.042;38.994;2022-10-22T05:33:26;5.60;;;3.42;;
50683;SDS011;36654;45.042;38.994;2022-10-22T05:35:52;5.85;;;3.72;;
50683;SDS011;36654;45.042;38.994;2022-10-22T05:38:19;4.30;;;3.90;;
50683;SDS011;36654;45.042;38.994;2022-10-22T05:40:44;4.80;;;3.83;;
50683;SDS011;36654;45.042;38.994;2022-10-22T05:43:10;5.80;;;3.88;;
50683;SDS011;36654;45.042;38.994;2022-10-22T05:45:37;4.88;;;4.05;;
50683;SDS011;36654;45.042;38.994;2022-10-22T05:48:04;7.13;;;4.47;;
50683;SDS011;36654;45.042;38.994;2022-10-22T05:50:30;8.13;;;4.32;;
50683;SDS011;36654;45.042;38.994;2022-10-22T05:52:56;11.02;;;4.15;;
50683;SDS011;36654;45.042;38.994;2022-10-22T05:55:22;7.82;;;4.03;;
50683;SDS011;36654;45.042;38.994;2022-10-22T05:57:47;5.78;;;4.20;;
50683;SDS011;36654;45.042;38.994;2022-10-22T06:00:14;7.10;;;4.30;;
50683;SDS011;36654;45.042;38.994;2022-10-22T06:02:40;5.68;;;4.57;;
50683;SDS011;36654;45.042;38.994;2022-10-22T06:05:06;6.88;;;4.80;;
50683;SDS011;36654;45.042;38.994;2022-10-22T06:07:32;6.05;;;4.40;;
50683;SDS011;36654;45.042;38.994;2022-10-22T06:09:58;6.13;;;4.40;;
50683;SDS011;36654;45.042;38.994;2022-10-22T06:12:24;6.03;;;4.28;;
50683;SDS011;36654;45.042;38.994;2022-10-22T06:14:50;6.03;;;4.35;;
50683;SDS011;36654;45.042;38.994;2022-10-22T06:17:16;8.05;;;4.50;;
50683;SDS011;36654;45.042;38.994;2022-10-22T06:19:43;7.78;;;4.72;;
50683;SDS011;36654;45.042;38.994;2022-10-22T06:22:09;5.30;;;4.18;;
50683;SDS011;36654;45.042;38.994;2022-10-22T06:24:35;6.07;;;3.92;;
50683;SDS011;36654;45.042;38.994;2022-10-22T06:27:01;5.47;;;3.72;;
50683;SDS011;36654;45.042;38.994;2022-10-22T06:29:27;5.63;;;3.47;;
50683;SDS011;36654;45.042;38.994;2022-10-22T06:31:52;6.97;;;3.33;;
50683;SDS011;36654;45.042;38.994;2022-10-22T06:34:18;5.85;;;3.92;;
50683;SDS011;36654;45.042;38.994;2022-10-22T06:36:44;4.40;;;3.70;;
50683;SDS011;36654;45.042;38.994;2022-10-22T06:39:15;4.60;;;4.20;;
50683;SDS011;36654;45.042;38.994;2022-10-22T06:41:41;5.85;;;3.83;;
50683;SDS011;36654;45.042;38.994;2022-10-22T06:44:09;4.82;;;3.67;;
50683;SDS011;36654;45.042;38.994;2022-10-22T06:46:39;3.78;;;3.35;;
50683;SDS011;36654;45.042;38.994;2022-10-22T06:49:05;4.28;;;3.42;;
50683;SDS011;36654;45.042;38.994;2022-10-22T06:51:31;5.55;;;3.50;;
50683;SDS011;36654;45.042;38.994;2022-10-22T06:53:57;3.55;;;3.25;;
50683;SDS011;36654;45.042;38.994;2022-10-22T06:56:24;3.10;;;2.80;;
50683;SDS011;36654;45.042;38.994;2022-10-22T06:58:53;4.60;;;2.92;;
50683;SDS011;36654;45.042;38.994;2022-10-22T07:01:24;4.03;;;3.08;;
50683;SDS011;36654;45.042;38.994;2022-10-22T07:03:52;4.78;;;3.97;;
50683;SDS011;36654;45.042;38.994;2022-10-22T07:06:19;4.55;;;2.88;;
50683;SDS011;36654;45.042;38.994;2022-10-22T07:08:46;4.07;;;3.22;;
50683;SDS011;36654;45.042;38.994;2022-10-22T07:11:13;3.63;;;3.05;;
50683;SDS011;36654;45.042;38.994;2022-10-22T07:13:43;5.05;;;3.30;;
50683;SDS011;36654;45.042;38.994;2022-10-22T07:16:09;3.58;;;3.17;;
50683;SDS011;36654;45.042;38.994;2022-10-22T07:18:36;4.53;;;3.40;;
50683;SDS011;36654;45.042;38.994;2022-10-22T07:21:04;3.60;;;2.95;;
50683;SDS011;36654;45.042;38.994;2022-10-22T07:23:30;4.10;;;2.97;;
50683;SDS011;36654;45.042;38.994;2022-10-22T07:29:28;3.47;;;3.17;;
50683;SDS011;36654;45.042;38.994;2022-10-22T07:31:54;3.72;;;3.28;;
50683;SDS011;36654;45.042;38.994;2022-10-22T07:34:23;5.00;;;2.65;;
50683;SDS011;36654;45.042;38.994;2022-10-22T07:36:48;3.97;;;2.85;;
50683;SDS011;36654;45.042;38.994;2022-10-22T07:39:17;8.02;;;4.32;;
50683;SDS011;36654;45.042;38.994;2022-10-22T07:41:42;5.47;;;3.85;;
50683;SDS011;36654;45.042;38.994;2022-10-22T07:44:08;7.13;;;3.15;;
50683;SDS011;36654;45.042;38.994;2022-10-22T07:46:34;4.10;;;3.20;;
50683;SDS011;36654;45.042;38.994;2022-10-22T07:48:59;4.68;;;3.00;;
50683;SDS011;36654;45.042;38.994;2022-10-22T07:51:25;3.03;;;2.60;;
50683;SDS011;36654;45.042;38.994;2022-10-22T07:53:51;4.47;;;3.40;;
50683;SDS011;36654;45.042;38.994;2022-10-22T07:56:16;3.80;;;3.50;;
50683;SDS011;36654;45.042;38.994;2022-10-22T07:58:42;4.05;;;3.17;;
50683;SDS011;36654;45.042;38.994;2022-10-22T08:01:08;6.82;;;2.92;;
50683;SDS011;36654;45.042;38.994;2022-10-22T08:03:33;7.93;;;4.57;;
50683;SDS011;36654;45.042;38.994;2022-10-22T08:05:59;4.97;;;3.47;;
50683;SDS011;36654;45.042;38.994;2022-10-22T08:08:25;4.35;;;3.65;;
50683;SDS011;36654;45.042;38.994;2022-10-22T08:10:51;4.25;;;3.53;;
50683;SDS011;36654;45.042;38.994;2022-10-22T08:13:20;5.03;;;3.00;;
50683;SDS011;36654;45.042;38.994;2022-10-22T08:15:47;5.80;;;2.55;;
50683;SDS011;36654;45.042;38.994;2022-10-22T08:18:13;3.40;;;3.03;;
50683;SDS011;36654;45.042;38.994;2022-10-22T08:20:39;4.00;;;2.90;;
50683;SDS011;36654;45.042;38.994;2022-10-22T08:23:05;3.42;;;3.08;;
50683;SDS011;36654;45.042;38.994;2022-10-22T08:25:31;3.30;;;2.90;;
50683;SDS011;36654;45.042;38.994;2022-10-22T08:27:57;2.70;;;2.50;;
50683;SDS011;36654;45.042;38.994;2022-10-22T08:30:22;4.18;;;2.65;;
50683;SDS011;36654;45.042;38.994;2022-10-22T08:32:50;4.55;;;2.92;;
50683;SDS011;36654;45.042;38.994;2022-10-22T08:35:16;5.30;;;3.22;;
50683;SDS011;36654;45.042;38.994;2022-10-22T08:37:42;5.43;;;4.30;;
50683;SDS011;36654;45.042;38.994;2022-10-22T08:40:08;4.20;;;2.75;;
50683;SDS011;36654;45.042;38.994;2022-10-22T08:43:06;2.70;;;2.47;;
50683;SDS011;36654;45.042;38.994;2022-10-22T08:48:46;9.25;;;5.50;;
50683;SDS011;36654;45.042;38.994;2022-10-22T08:51:16;7.20;;;5.18;;
50683;SDS011;36654;45.042;38.994;2022-10-22T08:56:35;6.22;;;4.13;;
50683;SDS011;36654;45.042;38.994;2022-10-22T08:59:18;3.50;;;2.88;;
50683;SDS011;36654;45.042;38.994;2022-10-22T09:01:50;5.22;;;3.83;;
50683;SDS011;36654;45.042;38.994;2022-10-22T09:05:01;6.15;;;5.30;;
50683;SDS011;36654;45.042;38.994;2022-10-22T09:07:19;6.07;;;3.85;;
50683;SDS011;36654;45.042;38.994;2022-10-22T09:09:46;36.67;;;31.83;;
50683;SDS011;36654;45.042;38.994;2022-10-22T09:12:17;22.63;;;16.77;;
50683;SDS011;36654;45.042;38.994;2022-10-22T09:14:46;11.75;;;9.73;;
50683;SDS011;36654;45.042;38.994;2022-10-22T09:17:15;5.82;;;3.83;;
50683;SDS011;36654;45.042;38.994;2022-10-22T09:22:49;4.43;;;3.13;;
50683;SDS011;36654;45.042;38.994;2022-10-22T09:25:26;6.15;;;2.95;;
50683;SDS011;36654;45.042;38.994;2022-10-22T09:27:54;24.90;;;19.50;;
50683;SDS011;36654;45.042;38.994;2022-10-22T09:30:33;5.32;;;3.95;;
50683;SDS011;36654;45.042;38.994;2022-10-22T09:33:01;4.00;;;2.92;;
50683;SDS011;36654;45.042;38.994;2022-10-22T09:38:18;2.80;;;2.40;;
50683;SDS011;36654;45.042;38.994;2022-10-22T09:40:47;2.38;;;2.17;;
50683;SDS011;36654;45.042;38.994;2022-10-22T09:43:14;3.97;;;2.63;;
50683;SDS011;36654;45.042;38.994;2022-10-22T09:45:41;2.50;;;2.30;;
50683;SDS011;36654;45.042;38.994;2022-10-22T09:50:49;2.85;;;2.40;;
50683;SDS011;36654;45.042;38.994;2022-10-22T09:53:22;2.78;;;2.45;;
50683;SDS011;36654;45.042;38.994;2022-10-22T09:55:54;2.70;;;2.50;;
50683;SDS011;36654;45.042;38.994;2022-10-22T09:58:22;7.43;;;2.45;;
50683;SDS011;36654;45.042;38.994;2022-10-22T10:01:06;2.47;;;2.28;;
50683;SDS011;36654;45.042;38.994;2022-10-22T10:03:31;2.95;;;2.33;;
50683;SDS011;36654;45.042;38.994;2022-10-22T10:05:58;3.67;;;2.63;;
50683;SDS011;36654;45.042;38.994;2022-10-22T10:08:25;2.60;;;2.33;;
50683;SDS011;36654;45.042;38.994;2022-10-22T10:10:52;6.25;;;4.18;;
50683;SDS011;36654;45.042;38.994;2022-10-22T10:13:26;3.95;;;2.47;;
50683;SDS011;36654;45.042;38.994;2022-10-22T10:19:00;4.10;;;3.00;;
50683;SDS011;36654;45.042;38.994;2022-10-22T10:24:33;2.42;;;2.20;;
50683;SDS011;36654;45.042;38.994;2022-10-22T10:27:25;2.80;;;2.53;;
50683;SDS011;36654;45.042;38.994;2022-10-22T10:30:19;2.70;;;2.50;;
50683;SDS011;36654;45.042;38.994;2022-10-22T10:35:45;3.03;;;2.80;;
50683;SDS011;36654;45.042;38.994;2022-10-22T10:41:18;3.13;;;2.80;;
50683;SDS011;36654;45.042;38.994;2022-10-22T10:44:00;4.38;;;3.20;;
50683;SDS011;36654;45.042;38.994;2022-10-22T10:49:43;2.95;;;2.65;;
50683;SDS011;36654;45.042;38.994;2022-10-22T10:55:20;3.88;;;3.45;;
50683;SDS011;36654;45.042;38.994;2022-10-22T10:57:55;3.90;;;3.00;;
50683;SDS011;36654;45.042;38.994;2022-10-22T11:00:43;3.42;;;3.08;;
50683;SDS011;36654;45.042;38.994;2022-10-22T11:03:27;3.72;;;3.08;;
50683;SDS011;36654;45.042;38.994;2022-10-22T11:06:00;5.13;;;3.05;;
50683;SDS011;36654;45.042;38.994;2022-10-22T11:08:36;3.00;;;2.70;;
50683;SDS011;36654;45.042;38.994;2022-10-22T11:11:16;2.92;;;2.72;;
50683;SDS011;36654;45.042;38.994;2022-10-22T11:16:37;2.45;;;2.25;;
50683;SDS011;36654;45.042;38.994;2022-10-22T11:21:52;3.35;;;2.72;;
50683;SDS011;36654;45.042;38.994;2022-10-22T11:24:21;3.17;;;2.58;;
50683;SDS011;36654;45.042;38.994;2022-10-22T11:27:05;3.55;;;2.42;;
50683;SDS011;36654;45.042;38.994;2022-10-22T11:29:40;2.80;;;2.10;;
50683;SDS011;36654;45.042;38.994;2022-10-22T11:32:13;2.70;;;2.30;;
50683;SDS011;36654;45.042;38.994;2022-10-22T11:37:14;2.10;;;2.00;;
50683;SDS011;36654;45.042;38.994;2022-10-22T11:40:28;3.25;;;2.50;;
50683;SDS011;36654;45.042;38.994;2022-10-22T11:42:48;3.40;;;2.53;;
50683;SDS011;36654;45.042;38.994;2022-10-22T11:47:52;2.58;;;2.33;;
50683;SDS011;36654;45.042;38.994;2022-10-22T11:50:22;6.28;;;2.90;;
50683;SDS011;36654;45.042;38.994;2022-10-22T11:52:59;3.90;;;2.60;;
50683;SDS011;36654;45.042;38.994;2022-10-22T11:57:58;2.17;;;2.08;;
50683;SDS011;36654;45.042;38.994;2022-10-22T12:00:45;2.92;;;2.60;;
50683;SDS011;36654;45.042;38.994;2022-10-22T12:03:17;3.13;;;2.80;;
50683;SDS011;36654;45.042;38.994;2022-10-22T12:06:00;8.27;;;5.20;;
50683;SDS011;36654;45.042;38.994;2022-10-22T12:08:41;3.17;;;2.50;;
50683;SDS011;36654;45.042;38.994;2022-10-22T12:11:12;4.55;;;2.95;;
50683;SDS011;36654;45.042;38.994;2022-10-22T12:16:26;2.65;;;2.25;;
50683;SDS011;36654;45.042;38.994;2022-10-22T12:19:11;2.72;;;2.10;;
50683;SDS011;36654;45.042;38.994;2022-10-22T12:21:40;2.78;;;2.58;;
50683;SDS011;36654;45.042;38.994;2022-10-22T12:24:11;4.13;;;1.95;;
50683;SDS011;36654;45.042;38.994;2022-10-22T12:26:39;3.13;;;2.20;;
50683;SDS011;36654;45.042;38.994;2022-10-22T12:29:08;2.90;;;2.67;;
50683;SDS011;36654;45.042;38.994;2022-10-22T12:31:36;2.70;;;2.50;;
50683;SDS011;36654;45.042;38.994;2022-10-22T12:34:03;3.13;;;2.33;;
50683;SDS011;36654;45.042;38.994;2022-10-22T12:36:29;3.58;;;2.60;;
50683;SDS011;36654;45.042;38.994;2022-10-22T12:38:59;4.68;;;3.00;;
50683;SDS011;36654;45.042;38.994;2022-10-22T12:41:32;2.97;;;2.55;;
50683;SDS011;36654;45.042;38.994;2022-10-22T12:44:03;3.88;;;2.88;;
50683;SDS011;36654;45.042;38.994;2022-10-22T12:46:30;3.28;;;2.90;;
50683;SDS011;36654;45.042;38.994;2022-10-22T12:49:02;4.95;;;2.30;;
50683;SDS011;36654;45.042;38.994;2022-10-22T12:51:31;2.85;;;2.63;;
50683;SDS011;36654;45.042;38.994;2022-10-22T12:53:59;3.70;;;2.58;;
50683;SDS011;36654;45.042;38.994;2022-10-22T12:56:31;5.55;;;2.80;;
50683;SDS011;36654;45.042;38.994;2022-10-22T12:58:59;3.78;;;2.25;;
50683;SDS011;36654;45.042;38.994;2022-10-22T13:01:28;3.10;;;2.47;;
50683;SDS011;36654;45.042;38.994;2022-10-22T13:04:05;2.72;;;2.33;;
50683;SDS011;36654;45.042;38.994;2022-10-22T13:06:41;6.78;;;2.65;;
50683;SDS011;36654;45.042;38.994;2022-10-22T13:09:13;3.53;;;2.40;;
50683;SDS011;36654;45.042;38.994;2022-10-22T13:17:02;5.00;;;3.08;;
50683;SDS011;36654;45.042;38.994;2022-10-22T13:19:36;3.72;;;2.40;;
50683;SDS011;36654;45.042;38.994;2022-10-22T13:22:20;3.78;;;2.65;;
50683;SDS011;36654;45.042;38.994;2022-10-22T13:24:49;4.68;;;3.33;;
50683;SDS011;36654;45.042;38.994;2022-10-22T13:27:16;7.55;;;3.22;;
50683;SDS011;36654;45.042;38.994;2022-10-22T13:29:41;5.07;;;2.80;;
50683;SDS011;36654;45.042;38.994;2022-10-22T13:32:17;5.13;;;2.40;;
50683;SDS011;36654;45.042;38.994;2022-10-22T13:34:50;4.05;;;3.00;;
50683;SDS011;36654;45.042;38.994;2022-10-22T13:37:15;4.60;;;3.17;;
50683;SDS011;36654;45.042;38.994;2022-10-22T13:39:41;5.30;;;3.15;;
50683;SDS011;36654;45.042;38.994;2022-10-22T13:42:10;3.47;;;2.83;;
50683;SDS011;36654;45.042;38.994;2022-10-22T13:44:36;3.50;;;3.00;;
50683;SDS011;36654;45.042;38.994;2022-10-22T13:47:02;4.32;;;2.72;;
50683;SDS011;36654;45.042;38.994;2022-10-22T13:49:28;4.85;;;2.60;;
50683;SDS011;36654;45.042;38.994;2022-10-22T13:51:54;4.35;;;2.88;;
50683;SDS011;36654;45.042;38.994;2022-10-22T13:54:20;5.25;;;3.63;;
50683;SDS011;36654;45.042;38.994;2022-10-22T13:56:48;7.82;;;2.92;;
50683;SDS011;36654;45.042;38.994;2022-10-22T13:59:14;6.57;;;3.60;;
50683;SDS011;36654;45.042;38.994;2022-10-22T14:01:39;5.90;;;2.80;;
50683;SDS011;36654;45.042;38.994;2022-10-22T14:04:06;5.88;;;2.78;;
50683;SDS011;36654;45.042;38.994;2022-10-22T14:06:34;6.53;;;3.42;;
50683;SDS011;36654;45.042;38.994;2022-10-22T14:09:02;6.22;;;3.25;;
50683;SDS011;36654;45.042;38.994;2022-10-22T14:11:30;3.38;;;3.05;;
50683;SDS011;36654;45.042;38.994;2022-10-22T14:13:56;6.47;;;3.00;;
50683;SDS011;36654;45.042;38.994;2022-10-22T14:16:24;4.45;;;3.15;;
50683;SDS011;36654;45.042;38.994;2022-10-22T14:18:51;5.65;;;3.17;;
50683;SDS011;36654;45.042;38.994;2022-10-22T14:21:19;8.18;;;5.28;;
50683;SDS011;36654;45.042;38.994;2022-10-22T14:23:45;12.27;;;6.53;;
50683;SDS011;36654;45.042;38.994;2022-10-22T14:26:25;21.17;;;10.88;;
50683;SDS011;36654;45.042;38.994;2022-10-22T14:28:55;12.65;;;5.72;;
50683;SDS011;36654;45.042;38.994;2022-10-22T14:31:22;5.97;;;3.90;;
50683;SDS011;36654;45.042;38.994;2022-10-22T14:33:47;7.05;;;4.00;;
50683;SDS011;36654;45.042;38.994;2022-10-22T14:36:14;9.85;;;4.90;;
50683;SDS011;36654;45.042;38.994;2022-10-22T14:38:41;9.85;;;4.78;;
50683;SDS011;36654;45.042;38.994;2022-10-22T14:41:18;8.77;;;6.20;;
50683;SDS011;36654;45.042;38.994;2022-10-22T14:43:46;11.35;;;6.40;;
50683;SDS011;36654;45.042;38.994;2022-10-22T14:46:12;11.73;;;7.50;;
50683;SDS011;36654;45.042;38.994;2022-10-22T14:48:39;21.58;;;10.90;;
50683;SDS011;36654;45.042;38.994;2022-10-22T14:51:05;16.75;;;9.48;;
50683;SDS011;36654;45.042;38.994;2022-10-22T14:53:33;14.65;;;8.57;;
50683;SDS011;36654;45.042;38.994;2022-10-22T14:55:59;14.90;;;7.43;;
50683;SDS011;36654;45.042;38.994;2022-10-22T14:58:26;14.77;;;7.50;;
50683;SDS011;36654;45.042;38.994;2022-10-22T15:00:51;14.80;;;8.20;;
50683;SDS011;36654;45.042;38.994;2022-10-22T15:03:17;19.63;;;9.60;;
50683;SDS011;36654;45.042;38.994;2022-10-22T15:05:43;23.08;;;13.25;;
50683;SDS011;36654;45.042;38.994;2022-10-22T15:08:12;17.38;;;10.02;;
50683;SDS011;36654;45.042;38.994;2022-10-22T15:10:39;23.40;;;10.02;;
50683;SDS011;36654;45.042;38.994;2022-10-22T15:13:05;17.77;;;8.80;;
50683;SDS011;36654;45.042;38.994;2022-10-22T15:15:31;18.08;;;9.30;;
50683;SDS011;36654;45.042;38.994;2022-10-22T15:17:56;17.95;;;9.25;;
50683;SDS011;36654;45.042;38.994;2022-10-22T15:20:22;14.43;;;9.18;;
50683;SDS011;36654;45.042;38.994;2022-10-22T15:22:48;16.88;;;9.65;;
50683;SDS011;36654;45.042;38.994;2022-10-22T15:25:13;17.15;;;9.75;;
50683;SDS011;36654;45.042;38.994;2022-10-22T15:27:39;16.20;;;9.23;;
50683;SDS011;36654;45.042;38.994;2022-10-22T15:30:05;18.65;;;9.93;;
50683;SDS011;36654;45.042;38.994;2022-10-22T15:32:31;28.65;;;14.43;;
50683;SDS011;36654;45.042;38.994;2022-10-22T15:34:58;14.68;;;9.40;;
50683;SDS011;36654;45.042;38.994;2022-10-22T15:37:25;20.38;;;12.93;;
50683;SDS011;36654;45.042;38.994;2022-10-22T15:39:51;27.15;;;15.05;;
50683;SDS011;36654;45.042;38.994;2022-10-22T15:42:17;24.23;;;15.38;;
50683;SDS011;36654;45.042;38.994;2022-10-22T15:44:43;18.35;;;11.88;;
50683;SDS011;36654;45.042;38.994;2022-10-22T15:47:09;21.95;;;12.88;;
50683;SDS011;36654;45.042;38.994;2022-10-22T15:49:35;20.42;;;11.57;;
50683;SDS011;36654;45.042;38.994;2022-10-22T15:52:03;22.80;;;10.05;;
50683;SDS011;36654;45.042;38.994;2022-10-22T15:54:33;20.42;;;11.38;;
50683;SDS011;36654;45.042;38.994;2022-10-22T15:56:59;25.80;;;13.23;;
50683;SDS011;36654;45.042;38.994;2022-10-22T15:59:32;22.73;;;12.75;;
50683;SDS011;36654;45.042;38.994;2022-10-22T16:01:58;24.83;;;13.07;;
50683;SDS011;36654;45.042;38.994;2022-10-22T16:04:24;20.70;;;11.80;;
50683;SDS011;36654;45.042;38.994;2022-10-22T16:06:50;22.17;;;13.13;;
50683;SDS011;36654;45.042;38.994;2022-10-22T16:09:18;30.77;;;13.93;;
50683;SDS011;36654;45.042;38.994;2022-10-22T16:11:46;26.10;;;13.18;;
50683;SDS011;36654;45.042;38.994;2022-10-22T16:14:13;18.38;;;11.20;;